Time;durP1;ratioP1;P1;durP2;ratioP2;P2;SDS_P1;SDS_P2;PMS_P1;PMS_P2;Temp;Humidity;BMP_temperature;BMP_pressure;BME280_temperature;BME280_humidity;BME280_pressure;Samples;Min_cycle;Max_cycle;Signal;HPM_P1;HPM_P2
2022/01/22 00:01:43;;;;;;;31.88;17.33;;;;;;;-4.85;82.67;98011.75;5044862;28;20033;-55
2022/01/22 00:04:10;;;;;;;29.85;16.30;;;;;;;-5.14;83.60;98007.16;5055208;28;20032;-55
2022/01/22 00:06:35;;;;;;;29.98;17.67;;;;;;;-4.92;82.77;98008.28;5046260;28;20092;-55
2022/01/22 00:09:02;;;;;;;27.90;16.58;;;;;;;-4.84;82.79;98005.88;5043311;28;20057;-55
2022/01/22 00:11:34;;;;;;;29.70;19.00;;;;;;;-4.78;82.24;98010.16;5041316;28;20025;-55
2022/01/22 00:16:44;;;;;;;32.85;17.75;;;;;;;-4.87;81.45;98009.19;5047734;28;20314;-55
2022/01/22 00:19:10;;;;;;;27.25;16.17;;;;;;;-4.81;82.59;98000.84;5048994;28;20082;-55
2022/01/22 00:21:37;;;;;;;26.48;15.85;;;;;;;-4.92;82.58;98017.53;5057812;28;20021;-56
2022/01/22 00:24:04;;;;;;;29.15;15.27;;;;;;;-4.79;82.82;98021.06;5059623;28;20037;-56
2022/01/22 00:26:29;;;;;;;27.92;15.57;;;;;;;-4.81;83.50;98017.69;5041677;28;20309;-56
2022/01/22 00:28:55;;;;;;;24.83;14.90;;;;;;;-4.88;82.11;98011.72;5042244;28;20040;-56
2022/01/22 00:31:20;;;;;;;26.08;15.70;;;;;;;-4.77;82.63;98022.78;5042008;28;20029;-56
2022/01/22 00:33:46;;;;;;;26.55;15.93;;;;;;;-4.81;82.65;98015.16;5040970;28;20040;-55
2022/01/22 00:36:11;;;;;;;23.65;13.73;;;;;;;-4.84;82.89;98015.97;5044651;28;20033;-56
2022/01/22 00:38:37;;;;;;;22.80;14.57;;;;;;;-4.83;81.29;98021.84;5049508;28;20021;-55
2022/01/22 00:41:03;;;;;;;24.10;14.43;;;;;;;-4.94;82.90;98020.03;5049545;28;20041;-55
2022/01/22 00:43:29;;;;;;;22.50;13.52;;;;;;;-4.92;83.01;98015.84;5053907;28;20045;-55
2022/01/22 00:45:54;;;;;;;23.15;14.00;;;;;;;-4.80;81.94;98022.75;5042541;28;20043;-55
2022/01/22 00:48:20;;;;;;;23.45;14.20;;;;;;;-5.00;83.47;98034.25;5049431;28;20299;-56
2022/01/22 00:50:47;;;;;;;21.48;12.23;;;;;;;-4.97;84.16;98035.16;5042354;28;20089;-56
2022/01/22 00:53:13;;;;;;;22.70;13.80;;;;;;;-4.90;83.41;98041.16;5043340;28;20048;-55
2022/01/22 00:55:38;;;;;;;21.38;13.07;;;;;;;-4.88;83.66;98042.84;5048134;28;20033;-55
2022/01/22 00:58:06;;;;;;;19.13;13.40;;;;;;;-4.74;82.23;98034.63;5053940;28;20222;-55
2022/01/22 01:00:32;;;;;;;24.17;14.10;;;;;;;-4.83;84.03;98042.06;5043992;28;20093;-55
2022/01/22 01:02:57;;;;;;;22.77;13.88;;;;;;;-4.61;82.28;98040.66;5047624;28;20032;-55
2022/01/22 01:05:23;;;;;;;23.77;13.93;;;;;;;-4.63;82.34;98044.84;5041748;28;20022;-55
2022/01/22 01:07:48;;;;;;;20.33;13.27;;;;;;;-4.65;82.97;98046.50;5044792;28;20100;-55
2022/01/22 01:10:17;;;;;;;21.00;13.07;;;;;;;-5.17;82.82;97975.97;5056153;28;20033;-59
2022/01/22 01:12:43;;;;;;;24.90;13.10;;;;;;;-4.83;82.89;98037.88;5041868;28;20037;-60
2022/01/22 01:34:23;;;;;;;21.65;12.57;;;;;;;-4.70;82.69;98052.34;5041585;28;20302;-55
2022/01/22 01:36:50;;;;;;;19.90;13.60;;;;;;;-4.55;82.28;98051.66;5055464;28;20029;-56
2022/01/22 01:39:22;;;;;;;22.95;13.32;;;;;;;-4.82;82.70;98056.38;5058211;28;20226;-56
2022/01/22 01:44:15;;;;;;;24.23;14.15;;;;;;;-4.53;82.82;98056.75;5052426;28;20075;-55
2022/01/22 01:46:52;;;;;;;22.33;12.68;;;;;;;-4.87;82.32;98046.22;5042703;28;20044;-56
2022/01/22 01:49:19;;;;;;;19.23;12.65;;;;;;;-4.78;82.38;98051.38;5045406;28;20057;-56
2022/01/22 01:51:45;;;;;;;23.70;13.93;;;;;;;-4.81;83.33;98048.81;5047705;28;20021;-56
2022/01/22 01:54:29;;;;;;;24.23;13.60;;;;;;;-4.63;81.97;98067.56;5047780;28;20040;-56
2022/01/22 01:59:44;;;;;;;24.55;14.65;;;;;;;-4.62;83.03;98064.22;5046123;28;20045;-56
2022/01/22 02:02:11;;;;;;;24.17;14.05;;;;;;;-4.58;82.80;98073.53;5046065;28;20097;-56
2022/01/22 02:04:37;;;;;;;23.60;13.88;;;;;;;-4.56;83.20;98066.81;5045182;28;20017;-55
2022/01/22 02:07:03;;;;;;;23.58;15.00;;;;;;;-4.46;82.09;98065.25;5044749;28;20038;-56
2022/01/22 02:09:29;;;;;;;28.30;14.23;;;;;;;-4.60;81.73;98071.00;5044798;28;20051;-56
2022/01/22 02:12:06;;;;;;;26.00;15.05;;;;;;;-4.65;82.24;98086.91;5044464;28;20071;-56
2022/01/22 02:25:26;;;;;;;29.40;16.33;;;;;;;-4.89;84.06;98085.72;5061905;28;20051;-57
2022/01/22 02:27:52;;;;;;;26.30;16.75;;;;;;;-4.75;84.25;98079.19;5059456;28;20376;-56
2022/01/22 02:30:21;;;;;;;23.98;14.77;;;;;;;-4.78;83.72;98084.22;5059586;28;20029;-57
2022/01/22 02:35:32;;;;;;;25.70;16.17;;;;;;;-4.69;82.69;98078.44;5053350;28;20028;-57
2022/01/22 02:38:07;;;;;;;26.43;15.93;;;;;;;-4.95;83.13;98085.66;5056207;28;20254;-57
2022/01/22 02:40:41;;;;;;;28.35;16.73;;;;;;;-4.70;83.67;98074.22;5059429;28;20044;-55
2022/01/22 02:43:09;;;;;;;27.20;15.98;;;;;;;-4.59;83.62;98079.41;5059680;28;20071;-55
2022/01/22 02:45:35;;;;;;;27.25;17.80;;;;;;;-4.86;83.30;98078.19;5053151;28;20033;-55
2022/01/22 02:48:00;;;;;;;25.30;14.90;;;;;;;-4.81;83.07;98086.69;5048560;28;20104;-56
2022/01/22 02:50:26;;;;;;;26.13;14.43;;;;;;;-4.65;84.06;98099.53;5050559;28;20135;-57
2022/01/22 02:52:52;;;;;;;25.77;14.70;;;;;;;-4.62;83.54;98092.00;5045022;28;20036;-54
2022/01/22 02:55:17;;;;;;;22.77;14.48;;;;;;;-4.64;83.38;98097.03;5044348;28;20050;-55
2022/01/22 02:57:46;;;;;;;22.23;14.98;;;;;;;-4.93;83.13;98046.13;5054925;28;20029;-55
2022/01/22 03:00:17;;;;;;;22.75;13.13;;;;;;;-5.15;83.56;98028.16;5060174;28;20332;-55
2022/01/22 03:02:43;;;;;;;22.17;14.15;;;;;;;-4.67;83.47;98091.94;5059144;28;20052;-55
2022/01/22 03:05:09;;;;;;;21.95;14.57;;;;;;;-4.39;82.51;98104.91;5046257;28;20037;-55
2022/01/22 03:07:36;;;;;;;23.20;14.23;;;;;;;-4.52;82.08;98109.81;5044817;28;20033;-56
2022/01/22 03:10:07;;;;;;;20.38;11.15;;;;;;;-4.72;83.58;98112.09;5043803;28;20037;-56
2022/01/22 03:15:35;;;;;;;21.20;11.27;;;;;;;-5.20;84.52;98047.47;5059016;28;20040;-56
2022/01/22 03:27:59;;;;;;;20.33;11.73;;;;;;;-4.69;83.23;98127.28;5058752;28;20032;-57
2022/01/22 03:30:25;;;;;;;16.92;11.27;;;;;;;-4.68;84.11;98128.94;5042378;28;20037;-57
2022/01/22 03:32:54;;;;;;;19.17;12.88;;;;;;;-4.63;84.27;98136.63;5043274;28;20068;-55
2022/01/22 03:37:53;;;;;;;17.95;12.10;;;;;;;-4.76;83.62;98143.16;5046614;28;20096;-56
2022/01/22 03:40:29;;;;;;;23.17;12.07;;;;;;;-4.68;83.01;98156.72;5044105;28;20108;-55
2022/01/22 03:42:55;;;;;;;18.40;12.48;;;;;;;-4.74;82.72;98155.81;5044128;28;20171;-56
2022/01/22 03:45:24;;;;;;;21.35;11.93;;;;;;;-4.71;83.67;98154.16;5054043;28;20025;-56
2022/01/22 03:47:49;;;;;;;18.70;12.15;;;;;;;-4.72;83.83;98162.59;5050466;28;20021;-57
2022/01/22 03:50:16;;;;;;;19.52;11.13;;;;;;;-4.85;84.89;98188.47;5043635;28;20047;-57
2022/01/22 03:52:42;;;;;;;19.98;11.88;;;;;;;-4.88;84.53;98158.97;5047001;28;20025;-56
2022/01/22 03:55:17;;;;;;;19.17;13.55;;;;;;;-4.57;84.31;98201.53;5056866;28;20324;-56
2022/01/22 03:57:42;;;;;;;21.08;13.60;;;;;;;-4.60;83.48;98176.19;5044190;28;20044;-56
2022/01/22 04:00:09;;;;;;;19.90;13.70;;;;;;;-4.55;82.69;98183.00;5047083;28;20022;-56
2022/01/22 04:05:05;;;;;;;19.65;13.02;;;;;;;-4.66;82.72;98194.63;5060463;28;20071;-56
2022/01/22 04:10:08;;;;;;;18.65;12.18;;;;;;;-4.82;84.87;98202.81;5053332;28;20052;-55
2022/01/22 04:12:48;;;;;;;21.67;13.38;;;;;;;-4.89;83.58;98161.47;5042756;28;20029;-55
2022/01/22 04:15:17;;;;;;;20.73;13.02;;;;;;;-4.63;83.77;98193.84;5051223;28;20313;-55
2022/01/22 04:25:57;;;;;;;23.88;17.08;;;;;;;-4.50;82.69;98213.41;5057646;28;20031;-56
2022/01/22 04:28:23;;;;;;;29.58;17.70;;;;;;;-4.49;83.77;98186.47;5057819;28;20310;-56
2022/01/22 04:30:49;;;;;;;22.63;14.77;;;;;;;-4.45;82.66;98204.19;5051693;28;20036;-56
2022/01/22 04:33:14;;;;;;;23.75;14.95;;;;;;;-4.43;83.09;98204.22;5046726;28;20277;-55
2022/01/22 04:35:40;;;;;;;29.10;17.23;;;;;;;-4.31;82.65;98221.25;5056822;28;20222;-55
2022/01/22 04:38:05;;;;;;;25.05;14.75;;;;;;;-4.43;83.01;98219.38;5056611;28;20028;-55
2022/01/22 04:40:31;;;;;;;23.13;14.93;;;;;;;-4.62;83.85;98214.06;5040798;28;20053;-55
2022/01/22 04:42:58;;;;;;;27.50;16.35;;;;;;;-4.47;84.72;98215.13;5058949;28;20041;-55
2022/01/22 04:45:42;;;;;;;21.55;13.25;;;;;;;-4.66;85.01;98219.88;5043527;28;20029;-55
2022/01/22 04:55:46;;;;;;;23.92;16.40;;;;;;;-4.43;83.57;98240.47;5057527;28;20037;-55
2022/01/22 04:58:13;;;;;;;21.90;13.80;;;;;;;-4.47;84.79;98230.28;5057319;28;20061;-56
2022/01/22 05:00:41;;;;;;;23.92;15.77;;;;;;;-4.56;84.95;98263.81;5057321;28;20090;-55
2022/01/22 05:03:07;;;;;;;26.90;13.20;;;;;;;-4.72;84.93;98245.03;5057472;28;20072;-56
2022/01/22 05:05:33;;;;;;;22.98;12.82;;;;;;;-4.78;85.59;98223.06;5054532;28;20033;-56
2022/01/22 05:07:58;;;;;;;20.85;13.73;;;;;;;-4.65;84.42;98229.16;5043999;28;20030;-56
2022/01/22 05:10:24;;;;;;;20.33;14.18;;;;;;;-4.51;84.36;98247.91;5046588;28;20047;-56
2022/01/22 05:12:51;;;;;;;22.77;14.02;;;;;;;-4.58;85.02;98250.31;5059669;28;20329;-57
2022/01/22 05:15:17;;;;;;;22.75;12.52;;;;;;;-4.53;85.31;98261.38;5058387;28;20036;-56
2022/01/22 05:17:44;;;;;;;19.85;14.20;;;;;;;-4.34;83.98;98260.78;5055856;28;20037;-56
2022/01/22 05:25:11;;;;;;;23.08;13.13;;;;;;;-4.49;84.68;98278.25;5057386;28;20092;-56
2022/01/22 05:27:52;;;;;;;20.83;14.20;;;;;;;-4.34;84.56;98270.06;5060659;28;20043;-55
2022/01/22 05:38:35;;;;;;;23.75;14.98;;;;;;;-4.22;83.68;98292.13;5060970;28;20310;-57
2022/01/22 05:41:01;;;;;;;19.33;13.23;;;;;;;-4.52;84.06;98301.81;5060590;28;20040;-57
2022/01/22 05:43:27;;;;;;;18.42;13.77;;;;;;;-4.30;84.09;98301.25;5042006;28;20033;-57
2022/01/22 05:45:53;;;;;;;19.38;12.95;;;;;;;-4.23;83.04;98298.88;5047021;28;20028;-57
2022/01/22 05:48:19;;;;;;;20.40;10.77;;;;;;;-4.52;84.23;98296.75;5044839;28;20033;-56
2022/01/22 05:53:29;;;;;;;16.70;12.40;;;;;;;-4.08;83.63;98295.69;5047180;28;20037;-56
2022/01/22 06:01:09;;;;;;;18.52;12.05;;;;;;;-4.28;83.17;98310.56;5045569;28;20029;-56
2022/01/22 06:03:35;;;;;;;19.80;11.95;;;;;;;-4.24;83.10;98312.31;5047144;28;20037;-56
2022/01/22 06:06:01;;;;;;;18.30;11.80;;;;;;;-4.20;83.50;98305.66;5044823;28;20287;-56
2022/01/22 06:08:33;;;;;;;17.42;11.68;;;;;;;-4.13;83.36;98321.75;5054778;28;20041;-55
2022/01/22 06:11:00;;;;;;;16.73;10.43;;;;;;;-4.29;83.68;98326.59;5060396;28;20036;-56
2022/01/22 06:13:43;;;;;;;17.50;10.30;;;;;;;-4.27;83.35;98329.97;5060339;28;20085;-56
2022/01/22 06:16:13;;;;;;;15.40;11.32;;;;;;;-4.13;83.48;98334.38;5053128;28;20034;-56
2022/01/22 06:18:38;;;;;;;18.02;11.70;;;;;;;-4.06;83.39;98333.63;5043911;28;20040;-56
2022/01/22 06:21:05;;;;;;;19.63;12.00;;;;;;;-3.95;82.78;98346.44;5056272;28;20025;-55
2022/01/22 06:23:31;;;;;;;21.05;12.52;;;;;;;-4.16;82.92;98340.25;5059740;28;20026;-56
2022/01/22 06:26:00;;;;;;;19.27;12.35;;;;;;;-4.14;83.26;98351.22;5047875;28;20100;-55
2022/01/22 06:28:26;;;;;;;19.55;11.30;;;;;;;-4.12;82.62;98354.63;5062329;28;20096;-56
2022/01/22 06:30:52;;;;;;;20.00;12.15;;;;;;;-4.19;82.96;98361.28;5062234;28;20075;-57
2022/01/22 06:33:18;;;;;;;20.58;12.10;;;;;;;-4.08;82.96;98358.06;5039509;28;20034;-57
2022/01/22 06:35:43;;;;;;;17.77;11.85;;;;;;;-3.94;82.30;98361.63;5043398;28;20052;-56
2022/01/22 06:38:10;;;;;;;21.08;12.48;;;;;;;-4.00;82.88;98367.47;5054382;28;20047;-56
2022/01/22 06:43:01;;;;;;;24.35;14.48;;;;;;;-3.93;82.72;98365.88;5052245;28;20103;-56
2022/01/22 06:45:27;;;;;;;21.20;13.55;;;;;;;-3.93;82.78;98373.47;5044064;28;20025;-57
2022/01/22 06:47:52;;;;;;;20.20;12.80;;;;;;;-3.93;83.17;98378.53;5045866;28;20222;-55
2022/01/22 06:50:19;;;;;;;25.30;17.60;;;;;;;-3.70;82.97;98381.38;5049389;28;20031;-57
2022/01/22 06:52:45;;;;;;;21.05;13.88;;;;;;;-3.60;82.42;98376.47;5043302;28;20033;-57
2022/01/22 06:55:14;;;;;;;20.63;13.82;;;;;;;-3.84;82.71;98388.75;5060663;28;20040;-57
2022/01/22 06:57:40;;;;;;;24.38;13.38;;;;;;;-3.77;82.36;98392.25;5047049;28;20348;-57
2022/01/22 07:00:06;;;;;;;19.33;13.10;;;;;;;-3.69;82.85;98393.22;5039181;28;20021;-58
2022/01/22 07:02:32;;;;;;;18.63;13.35;;;;;;;-3.68;83.03;98384.81;5043064;28;20037;-57
2022/01/22 07:04:57;;;;;;;22.05;13.85;;;;;;;-3.62;82.05;98398.34;5043215;28;20148;-58
2022/01/22 07:07:23;;;;;;;21.52;12.93;;;;;;;-3.53;83.06;98394.28;5045034;28;20033;-57
2022/01/22 07:09:48;;;;;;;19.10;13.07;;;;;;;-3.83;81.77;98408.19;5045970;28;20043;-58
2022/01/22 07:12:14;;;;;;;19.63;13.50;;;;;;;-3.72;83.33;98408.34;5045802;28;20079;-57
2022/01/22 07:14:41;;;;;;;21.90;14.02;;;;;;;-3.44;82.47;98426.44;5060134;28;20097;-57
2022/01/22 07:17:07;;;;;;;23.83;14.05;;;;;;;-3.32;82.41;98418.16;5043313;28;20037;-57
2022/01/22 07:19:39;;;;;;;22.23;13.88;;;;;;;-3.42;81.96;98426.47;5045172;28;20037;-56
2022/01/22 07:22:18;;;;;;;22.50;13.98;;;;;;;-3.58;82.05;98432.97;5044846;28;20037;-58
2022/01/22 07:24:44;;;;;;;26.10;14.52;;;;;;;-3.47;82.29;98441.59;5043010;28;20029;-57
2022/01/22 07:27:09;;;;;;;22.02;14.02;;;;;;;-3.53;82.71;98437.28;5043170;28;20041;-58
2022/01/22 07:29:35;;;;;;;23.27;14.90;;;;;;;-3.47;82.30;98447.47;5039753;28;20037;-57
2022/01/22 07:32:03;;;;;;;20.63;15.35;;;;;;;-3.56;82.26;98456.63;5044995;28;20036;-58
2022/01/22 07:34:28;;;;;;;21.17;13.98;;;;;;;-3.91;82.57;98462.00;5044762;28;20518;-57
2022/01/22 07:36:54;;;;;;;24.90;15.52;;;;;;;-3.73;82.89;98462.28;5044474;28;20032;-57
2022/01/22 07:39:19;;;;;;;23.35;15.10;;;;;;;-3.66;82.73;98471.66;5044115;28;20032;-57
2022/01/22 07:41:46;;;;;;;28.58;16.92;;;;;;;-3.56;82.95;98477.72;5042690;28;20059;-58
2022/01/22 07:44:12;;;;;;;21.02;14.23;;;;;;;-3.48;82.10;98472.78;5042159;28;20037;-57
2022/01/22 07:46:37;;;;;;;23.10;15.75;;;;;;;-3.61;82.65;98489.44;5042844;28;20187;-58
2022/01/22 07:49:05;;;;;;;25.88;17.35;;;;;;;-3.50;82.83;98480.34;5042103;28;20226;-57
2022/01/22 07:51:31;;;;;;;24.90;17.13;;;;;;;-3.44;82.98;98493.94;5042858;28;20033;-57
2022/01/22 07:53:58;;;;;;;23.60;15.93;;;;;;;-3.85;84.14;98502.53;5042067;28;20042;-56
2022/01/22 07:56:24;;;;;;;28.13;17.75;;;;;;;-3.52;85.09;98502.25;5039441;28;20100;-57
2022/01/22 07:58:49;;;;;;;29.73;18.23;;;;;;;-3.41;83.79;98499.88;5050608;28;20222;-57
2022/01/22 08:01:15;;;;;;;28.02;17.55;;;;;;;-3.44;83.91;98502.34;5042953;28;20029;-58
2022/01/22 08:03:41;;;;;;;28.60;18.27;;;;;;;-3.47;82.83;98513.28;5045327;28;20477;-57
2022/01/22 08:06:06;;;;;;;30.60;18.02;;;;;;;-3.74;82.51;98511.16;5043931;28;20025;-56
2022/01/22 08:08:34;;;;;;;29.08;18.27;;;;;;;-3.48;82.84;98508.19;5042847;28;20075;-56
2022/01/22 08:11:00;;;;;;;27.83;16.98;;;;;;;-3.56;82.12;98503.03;5060625;28;20348;-56
2022/01/22 08:13:25;;;;;;;26.08;17.05;;;;;;;-3.38;83.15;98520.16;5059970;28;20025;-58
2022/01/22 08:15:51;;;;;;;30.50;19.42;;;;;;;-3.51;82.74;98514.06;5058325;28;20241;-57
2022/01/22 08:18:16;;;;;;;26.27;17.58;;;;;;;-3.56;82.51;98512.28;5051256;28;20032;-57
2022/01/22 08:20:42;;;;;;;25.95;17.05;;;;;;;-3.44;83.31;98521.75;5039263;28;20040;-56
2022/01/22 08:23:08;;;;;;;26.85;16.70;;;;;;;-3.73;83.64;98515.41;5041665;28;20029;-57
2022/01/22 08:25:33;;;;;;;30.02;17.95;;;;;;;-3.40;82.79;98533.63;5042028;28;20025;-57
2022/01/22 08:30:33;;;;;;;30.05;18.52;;;;;;;-3.62;82.59;98515.56;5040137;28;20221;-58
2022/01/22 08:36:02;;;;;;;28.17;18.58;;;;;;;-3.35;82.50;98535.41;5041978;28;20037;-57
2022/01/22 08:38:17;;;;;;;29.85;19.00;;;;;;;-3.44;82.64;98539.47;5055566;28;20120;-57
2022/01/22 08:40:43;;;;;;;31.23;19.05;;;;;;;-3.40;82.42;98551.34;5042299;28;20060;-57
2022/01/22 08:43:10;;;;;;;28.25;19.00;;;;;;;-3.42;82.71;98545.41;5045860;28;20372;-57
2022/01/22 08:45:36;;;;;;;29.45;19.58;;;;;;;-3.29;82.75;98542.25;5056376;28;20036;-57
2022/01/22 08:48:03;;;;;;;29.10;19.35;;;;;;;-3.24;82.08;98549.91;5052662;28;20041;-57
2022/01/22 08:50:29;;;;;;;26.35;18.15;;;;;;;-3.15;81.94;98558.50;5044123;28;20041;-58
2022/01/22 08:52:55;;;;;;;33.25;19.67;;;;;;;-3.04;81.15;98551.03;5048793;28;20041;-58
2022/01/22 08:55:20;;;;;;;33.42;20.13;;;;;;;-3.31;82.08;98556.53;5052333;28;20075;-58
2022/01/22 08:57:49;;;;;;;28.38;19.83;;;;;;;-3.16;82.41;98563.53;5043983;28;20049;-57
2022/01/22 09:00:17;;;;;;;30.60;19.63;;;;;;;-3.24;81.97;98563.41;5045354;28;20095;-58
2022/01/22 09:02:45;;;;;;;28.65;16.98;;;;;;;-3.36;81.85;98570.81;5047491;28;20063;-58
2022/01/22 09:05:10;;;;;;;34.08;19.08;;;;;;;-3.46;82.28;98577.41;5047551;28;20068;-56
2022/01/22 09:07:36;;;;;;;32.92;17.35;;;;;;;-3.44;82.72;98575.75;5048844;28;20053;-57
2022/01/22 09:10:03;;;;;;;35.58;22.40;;;;;;;-3.39;82.03;98580.88;5047517;28;20057;-57
2022/01/22 09:12:29;;;;;;;33.60;21.67;;;;;;;-3.19;82.20;98581.19;5048693;28;20082;-58
2022/01/22 09:14:55;;;;;;;35.83;21.08;;;;;;;-3.38;82.28;98583.44;5052558;28;20033;-56
2022/01/22 09:17:21;;;;;;;33.40;22.65;;;;;;;-3.19;82.57;98584.59;5048617;28;20037;-57
2022/01/22 09:19:47;;;;;;;38.80;24.48;;;;;;;-3.11;82.06;98599.91;5048969;28;20315;-56
2022/01/22 09:22:13;;;;;;;37.88;23.23;;;;;;;-3.10;82.17;98601.59;5044858;28;20041;-57
2022/01/22 09:24:40;;;;;;;40.78;25.63;;;;;;;-3.03;82.33;98603.41;5048424;28;20092;-58
2022/01/22 09:27:06;;;;;;;42.08;25.88;;;;;;;-3.15;81.78;98615.84;5048481;28;20057;-55
2022/01/22 09:29:34;;;;;;;40.58;24.90;;;;;;;-3.00;81.63;98615.25;5048535;28;20037;-58
2022/01/22 09:32:00;;;;;;;40.78;24.38;;;;;;;-3.47;81.96;98596.78;5047496;28;20025;-58
2022/01/22 09:34:26;;;;;;;42.05;25.77;;;;;;;-3.20;82.25;98614.94;5047700;28;20021;-57
2022/01/22 09:36:51;;;;;;;43.90;26.40;;;;;;;-3.13;82.09;98602.41;5048212;28;20079;-57
2022/01/22 09:39:17;;;;;;;39.40;23.05;;;;;;;-3.20;81.39;98625.06;5046870;28;20037;-57
2022/01/22 09:41:44;;;;;;;40.83;23.85;;;;;;;-3.07;81.98;98657.34;5048257;28;20049;-57
2022/01/22 09:44:10;;;;;;;38.55;23.70;;;;;;;-3.15;82.23;98623.44;5048361;28;20035;-56
2022/01/22 09:46:36;;;;;;;40.40;25.85;;;;;;;-2.88;81.37;98627.25;5047173;28;20079;-56
2022/01/22 09:49:02;;;;;;;34.40;23.17;;;;;;;-2.97;80.90;98626.28;5045497;28;20029;-57
2022/01/22 09:51:29;;;;;;;35.30;22.92;;;;;;;-3.11;81.32;98630.28;5045753;28;20112;-57
2022/01/22 09:53:55;;;;;;;37.30;23.67;;;;;;;-3.14;81.81;98631.06;5046695;28;20064;-57
2022/01/22 09:56:23;;;;;;;38.40;23.65;;;;;;;-3.11;81.96;98630.28;5046329;28;20025;-57
2022/01/22 09:58:50;;;;;;;34.30;21.35;;;;;;;-3.14;81.55;98635.28;5048434;28;20045;-56
2022/01/22 10:01:33;;;;;;;35.63;22.10;;;;;;;-3.18;81.73;98669.84;5048733;28;20087;-56
2022/01/22 10:04:05;;;;;;;34.92;22.25;;;;;;;-3.27;81.79;98651.97;5045549;28;20021;-56
2022/01/22 10:06:32;;;;;;;;;;;;;;;-3.46;82.74;98648.28;5048211;28;20096;-56
2022/01/22 10:09:12;;;;;;;33.28;20.70;;;;;;;-3.36;82.88;98645.06;5046733;28;19917;-56
2022/01/22 10:11:38;;;;;;;39.00;22.73;;;;;;;-3.15;82.42;98654.72;5030100;28;20029;-58
2022/01/22 10:14:04;;;;;;;37.00;21.58;;;;;;;-3.23;82.59;98642.75;5040971;28;20214;-56
2022/01/22 10:16:37;;;;;;;36.65;22.95;;;;;;;-3.49;82.88;98598.44;5039109;28;20030;-56
2022/01/22 10:19:20;;;;;;;42.72;22.92;;;;;;;-2.97;81.87;98669.34;5043336;28;20097;-56
2022/01/22 10:21:47;;;;;;;40.33;24.75;;;;;;;-3.18;82.00;98610.75;5051108;28;20305;-54
2022/01/22 10:24:43;;;;;;;42.92;25.02;;;;;;;-2.96;81.85;98663.44;5056539;28;20025;-55
2022/01/22 10:27:33;;;;;;;41.35;24.75;;;;;;;-2.76;81.90;98675.59;5051292;28;20037;-56
2022/01/22 10:30:05;;;;;;;40.22;24.52;;;;;;;-2.67;81.43;98673.19;5050853;28;20064;-56
2022/01/22 10:32:57;;;;;;;41.40;24.55;;;;;;;-2.68;81.30;98670.63;5041123;28;20124;-56
2022/01/22 10:35:26;;;;;;;37.25;23.73;;;;;;;-2.58;81.45;98691.88;5045418;28;20030;-55
2022/01/22 10:37:59;;;;;;;40.70;25.40;;;;;;;-3.16;81.17;98612.50;5043484;28;20334;-57
2022/01/22 10:40:34;;;;;;;38.40;23.58;;;;;;;-2.90;81.23;98652.56;5042904;28;20052;-56
2022/01/22 10:43:35;;;;;;;44.92;25.70;;;;;;;-3.12;81.25;98623.53;5044038;28;20048;-55
2022/01/22 10:46:01;;;;;;;40.05;26.10;;;;;;;-2.73;81.39;98677.31;5044069;28;20033;-57
2022/01/22 10:48:27;;;;;;;40.72;24.00;;;;;;;-3.14;82.07;98670.75;5043078;28;20113;-57
2022/01/22 10:51:11;;;;;;;40.45;25.40;;;;;;;-3.26;82.05;98641.03;5042827;28;20184;-57
2022/01/22 10:54:01;;;;;;;41.78;24.27;;;;;;;-2.90;82.01;98687.19;5042987;28;20302;-56
2022/01/22 10:56:29;;;;;;;51.15;28.13;;;;;;;-2.82;81.36;98681.41;5045200;28;20143;-57
2022/01/22 10:59:07;;;;;;;46.55;27.60;;;;;;;-3.16;81.06;98621.78;5058088;28;20032;-57
2022/01/22 11:01:44;;;;;;;43.17;23.73;;;;;;;-3.00;81.71;98693.78;5043890;28;20265;-58
2022/01/22 11:04:15;;;;;;;48.97;27.17;;;;;;;-3.06;81.71;98729.13;5044394;28;20175;-57
2022/01/22 11:07:06;;;;;;;51.22;27.05;;;;;;;-2.75;81.44;98705.16;5042820;28;20189;-56
2022/01/22 11:09:34;;;;;;;54.35;30.40;;;;;;;-2.75;81.65;98715.31;5041689;28;20066;-56
2022/01/22 11:12:05;;;;;;;48.92;30.67;;;;;;;-2.60;81.55;98699.47;5041131;28;20322;-57
2022/01/22 11:14:34;;;;;;;45.50;28.60;;;;;;;-2.84;80.84;98659.41;5044044;28;20029;-58
2022/01/22 11:17:01;;;;;;;44.80;28.35;;;;;;;-2.53;81.66;98726.59;5042770;28;20033;-58
2022/01/22 11:19:32;;;;;;;44.25;26.80;;;;;;;-2.64;81.12;98734.06;5057812;28;20306;-57
2022/01/22 11:22:08;;;;;;;46.47;29.40;;;;;;;-2.50;80.66;98735.94;5041648;28;20033;-58
2022/01/22 11:24:39;;;;;;;47.95;27.83;;;;;;;-2.54;80.47;98739.25;5059095;28;20032;-60
2022/01/22 11:27:07;;;;;;;48.08;30.55;;;;;;;-2.80;80.66;98687.34;5046381;28;20033;-57
2022/01/22 11:29:56;;;;;;;46.53;27.67;;;;;;;-2.71;80.44;98675.66;5052111;28;20041;-58
2022/01/22 11:32:32;;;;;;;45.83;27.85;;;;;;;-2.28;79.95;98763.34;5051391;28;20035;-58
2022/01/22 11:35:04;;;;;;;45.83;26.50;;;;;;;-2.35;79.87;98748.00;5043153;28;20083;-57
2022/01/22 11:37:34;;;;;;;;;;;;;;;-2.54;80.19;98754.47;5046694;28;20029;-57
2022/01/22 11:40:10;;;;;;;42.83;24.20;;;;;;;-2.67;80.55;98763.56;5041215;28;19948;-58
2022/01/22 11:42:56;;;;;;;40.15;24.08;;;;;;;-2.60;80.44;98773.81;5040939;28;20037;-58
2022/01/22 11:45:44;;;;;;;41.45;22.67;;;;;;;-2.81;80.25;98789.53;5044523;28;20250;-59
2022/01/22 11:48:26;;;;;;;43.30;25.38;;;;;;;-2.49;80.88;98780.75;5043665;28;20334;-58
2022/01/22 11:50:53;;;;;;;;;;;;;;;-2.38;80.51;98785.97;5042914;28;20330;-57
2022/01/22 11:53:32;;;;;;;43.58;25.02;;;;;;;-2.66;81.14;98793.16;5043454;28;20010;-58
2022/01/22 11:56:10;;;;;;;34.88;22.88;;;;;;;-2.47;81.00;98812.88;5042755;28;20047;-57
2022/01/22 11:58:57;;;;;;;42.97;26.02;;;;;;;-2.48;81.04;98796.00;5040999;28;20029;-57
2022/01/22 12:01:56;;;;;;;42.10;24.65;;;;;;;-2.49;80.29;98809.47;5041755;28;20210;-57
2022/01/22 12:04:50;;;;;;;40.85;24.48;;;;;;;-2.67;80.39;98804.09;5043508;28;20029;-57
2022/01/22 12:07:21;;;;;;;42.15;24.42;;;;;;;-2.66;81.05;98811.72;5040688;28;20064;-56
2022/01/22 12:15:11;;;;;;;35.47;21.42;;;;;;;-2.66;81.50;98826.09;5041220;28;20029;-55
2022/01/22 12:23:18;;;;;;;32.78;18.85;;;;;;;-2.95;82.18;98799.41;5040020;28;20092;-56
2022/01/22 12:25:43;;;;;;;31.13;18.70;;;;;;;-2.52;82.34;98841.50;5042483;28;20033;-56
2022/01/22 12:28:49;;;;;;;30.85;18.30;;;;;;;-2.38;81.83;98850.22;5042013;28;20025;-56
2022/01/22 12:31:20;;;;;;;28.35;17.52;;;;;;;-2.56;83.02;98849.91;5040708;28;20046;-56
2022/01/22 12:33:53;;;;;;;24.80;15.77;;;;;;;-2.74;82.58;98863.09;5037147;28;20105;-56
2022/01/22 12:36:27;;;;;;;29.20;17.13;;;;;;;-2.75;83.32;98876.59;5042089;28;20408;-56
2022/01/22 12:39:07;;;;;;;26.17;15.63;;;;;;;-3.06;82.88;98800.88;5043136;28;20105;-56
2022/01/22 12:44:27;;;;;;;28.05;16.45;;;;;;;-2.62;82.78;98873.47;5057741;28;20044;-56
2022/01/22 12:46:56;;;;;;;26.30;16.45;;;;;;;-2.55;82.81;98869.34;5056203;28;20033;-57
2022/01/22 12:49:23;;;;;;;29.00;15.82;;;;;;;-2.66;81.75;98876.78;5041894;28;20037;-56
2022/01/22 12:51:57;;;;;;;23.38;15.30;;;;;;;-3.19;82.19;98817.53;5048948;28;20033;-56
2022/01/22 12:54:31;;;;;;;26.13;15.98;;;;;;;-2.69;82.58;98885.16;5058976;28;20091;-56
2022/01/22 12:57:15;;;;;;;23.70;13.82;;;;;;;-2.75;84.07;98899.38;5058791;28;20385;-56
2022/01/22 13:00:11;;;;;;;26.27;14.10;;;;;;;-2.91;83.87;98893.19;5049455;28;20242;-57
2022/01/22 13:02:57;;;;;;;22.50;14.57;;;;;;;-3.08;83.33;98832.91;5041449;28;20037;-56
2022/01/22 13:05:25;;;;;;;28.90;15.85;;;;;;;-3.11;82.96;98832.84;5059861;28;20036;-55
2022/01/22 13:07:57;;;;;;;24.88;15.27;;;;;;;-2.86;83.50;98894.13;5042078;28;20030;-55
2022/01/22 13:10:31;;;;;;;24.35;16.20;;;;;;;-2.70;83.72;98926.53;5041920;28;20043;-56
2022/01/22 13:12:58;;;;;;;22.58;14.95;;;;;;;-2.85;84.17;98921.16;5040940;28;20037;-55
2022/01/22 13:15:26;;;;;;;22.58;14.25;;;;;;;-3.01;84.25;98900.56;5053650;28;20187;-55
2022/01/22 13:17:56;;;;;;;21.48;14.45;;;;;;;-3.33;84.46;98855.22;5043861;28;20091;-55
2022/01/22 13:20:24;;;;;;;25.33;15.18;;;;;;;-2.89;84.35;98920.25;5050448;28;20031;-54
2022/01/22 13:22:50;;;;;;;24.05;16.70;;;;;;;-2.58;84.03;98937.72;5047738;28;20053;-56
2022/01/22 13:25:17;;;;;;;25.13;14.10;;;;;;;-2.97;84.69;98920.06;5040518;28;20068;-54
2022/01/22 13:27:57;;;;;;;22.50;15.30;;;;;;;-2.69;84.69;98922.31;5041780;28;20117;-56